sensor_id;sensor_type;location;lat;lon;timestamp;P1;durP1;ratioP1;P2;durP2;ratioP2
76194;SDS011;64964;48.694;21.206;2023-04-01T00:00:55;31.65;;;14.20;;
76194;SDS011;64964;48.694;21.206;2023-04-01T00:03:22;33.80;;;14.10;;
76194;SDS011;64964;48.694;21.206;2023-04-01T00:05:49;31.67;;;14.27;;
76194;SDS011;64964;48.694;21.206;2023-04-01T00:08:15;30.77;;;13.30;;
76194;SDS011;64964;48.694;21.206;2023-04-01T00:10:41;28.35;;;14.02;;
76194;SDS011;64964;48.694;21.206;2023-04-01T00:13:07;23.73;;;13.23;;
76194;SDS011;64964;48.694;21.206;2023-04-01T00:15:32;24.27;;;13.27;;
76194;SDS011;64964;48.694;21.206;2023-04-01T00:17:58;23.70;;;12.43;;
76194;SDS011;64964;48.694;21.206;2023-04-01T00:20:24;44.92;;;13.10;;
76194;SDS011;64964;48.694;21.206;2023-04-01T00:22:50;71.80;;;12.20;;
76194;SDS011;64964;48.694;21.206;2023-04-01T00:25:15;39.97;;;12.93;;
76194;SDS011;64964;48.694;21.206;2023-04-01T00:27:41;38.00;;;12.13;;
76194;SDS011;64964;48.694;21.206;2023-04-01T00:30:06;22.43;;;12.17;;
76194;SDS011;64964;48.694;21.206;2023-04-01T00:32:32;23.15;;;12.45;;
76194;SDS011;64964;48.694;21.206;2023-04-01T00:34:58;24.83;;;13.27;;
76194;SDS011;64964;48.694;21.206;2023-04-01T00:37:27;20.67;;;11.93;;
76194;SDS011;64964;48.694;21.206;2023-04-01T00:39:53;21.77;;;12.57;;
76194;SDS011;64964;48.694;21.206;2023-04-01T00:42:19;23.55;;;13.32;;
76194;SDS011;64964;48.694;21.206;2023-04-01T00:44:54;23.27;;;12.27;;
76194;SDS011;64964;48.694;21.206;2023-04-01T00:47:20;23.10;;;12.65;;
76194;SDS011;64964;48.694;21.206;2023-04-01T00:49:49;25.70;;;12.32;;
76194;SDS011;64964;48.694;21.206;2023-04-01T00:52:20;20.05;;;12.10;;
76194;SDS011;64964;48.694;21.206;2023-04-01T00:54:49;20.57;;;12.20;;
76194;SDS011;64964;48.694;21.206;2023-04-01T00:57:28;31.63;;;10.80;;
76194;SDS011;64964;48.694;21.206;2023-04-01T00:59:56;65.47;;;11.40;;
76194;SDS011;64964;48.694;21.206;2023-04-01T01:02:23;55.80;;;11.38;;
76194;SDS011;64964;48.694;21.206;2023-04-01T01:04:48;72.43;;;12.50;;
76194;SDS011;64964;48.694;21.206;2023-04-01T01:26:23;22.97;;;11.27;;
76194;SDS011;64964;48.694;21.206;2023-04-01T01:37:40;30.30;;;12.95;;
76194;SDS011;64964;48.694;21.206;2023-04-01T01:40:08;28.90;;;12.37;;
76194;SDS011;64964;48.694;21.206;2023-04-01T01:42:37;27.48;;;14.00;;
76194;SDS011;64964;48.694;21.206;2023-04-01T01:45:05;27.10;;;13.60;;
76194;SDS011;64964;48.694;21.206;2023-04-01T01:47:34;25.67;;;13.65;;
76194;SDS011;64964;48.694;21.206;2023-04-01T01:50:00;25.92;;;13.40;;
76194;SDS011;64964;48.694;21.206;2023-04-01T01:52:28;25.47;;;13.07;;
76194;SDS011;64964;48.694;21.206;2023-04-01T01:54:55;27.75;;;13.30;;
76194;SDS011;64964;48.694;21.206;2023-04-01T01:57:34;22.67;;;12.35;;
76194;SDS011;64964;48.694;21.206;2023-04-01T02:00:05;22.38;;;12.60;;
76194;SDS011;64964;48.694;21.206;2023-04-01T02:02:39;20.38;;;12.13;;
76194;SDS011;64964;48.694;21.206;2023-04-01T02:05:06;21.40;;;11.90;;
76194;SDS011;64964;48.694;21.206;2023-04-01T02:07:35;22.15;;;11.88;;
76194;SDS011;64964;48.694;21.206;2023-04-01T02:10:03;24.17;;;12.90;;
76194;SDS011;64964;48.694;21.206;2023-04-01T02:12:29;26.73;;;13.27;;
76194;SDS011;64964;48.694;21.206;2023-04-01T02:15:00;24.50;;;13.05;;
76194;SDS011;64964;48.694;21.206;2023-04-01T02:17:31;25.93;;;12.57;;
76194;SDS011;64964;48.694;21.206;2023-04-01T02:20:00;26.67;;;13.20;;
76194;SDS011;64964;48.694;21.206;2023-04-01T02:22:31;23.70;;;12.70;;
76194;SDS011;64964;48.694;21.206;2023-04-01T02:24:59;24.52;;;12.75;;
76194;SDS011;64964;48.694;21.206;2023-04-01T02:27:30;24.02;;;12.93;;
76194;SDS011;64964;48.694;21.206;2023-04-01T02:29:56;25.20;;;13.77;;
76194;SDS011;64964;48.694;21.206;2023-04-01T02:32:22;25.52;;;13.60;;
76194;SDS011;64964;48.694;21.206;2023-04-01T02:34:49;23.45;;;13.05;;
76194;SDS011;64964;48.694;21.206;2023-04-01T02:37:15;27.63;;;13.95;;
76194;SDS011;64964;48.694;21.206;2023-04-01T02:39:41;26.30;;;13.35;;
76194;SDS011;64964;48.694;21.206;2023-04-01T02:42:08;27.73;;;14.47;;
76194;SDS011;64964;48.694;21.206;2023-04-01T02:44:33;26.83;;;14.20;;
76194;SDS011;64964;48.694;21.206;2023-04-01T02:46:59;26.33;;;12.80;;
76194;SDS011;64964;48.694;21.206;2023-04-01T02:49:24;26.13;;;13.50;;
76194;SDS011;64964;48.694;21.206;2023-04-01T02:51:50;28.13;;;13.77;;
76194;SDS011;64964;48.694;21.206;2023-04-01T02:54:16;24.73;;;13.40;;
76194;SDS011;64964;48.694;21.206;2023-04-01T02:56:42;27.77;;;13.63;;
76194;SDS011;64964;48.694;21.206;2023-04-01T02:59:08;27.75;;;13.43;;
76194;SDS011;64964;48.694;21.206;2023-04-01T03:01:33;27.20;;;12.23;;
76194;SDS011;64964;48.694;21.206;2023-04-01T03:03:58;26.83;;;13.63;;
76194;SDS011;64964;48.694;21.206;2023-04-01T03:06:24;25.57;;;13.03;;
76194;SDS011;64964;48.694;21.206;2023-04-01T03:08:49;25.10;;;12.90;;
76194;SDS011;64964;48.694;21.206;2023-04-01T03:11:15;24.97;;;13.03;;
76194;SDS011;64964;48.694;21.206;2023-04-01T03:13:40;27.60;;;13.07;;
76194;SDS011;64964;48.694;21.206;2023-04-01T03:16:06;25.30;;;12.53;;
76194;SDS011;64964;48.694;21.206;2023-04-01T03:18:32;22.50;;;11.73;;
76194;SDS011;64964;48.694;21.206;2023-04-01T03:20:57;23.30;;;12.52;;
76194;SDS011;64964;48.694;21.206;2023-04-01T03:23:37;22.27;;;12.63;;
76194;SDS011;64964;48.694;21.206;2023-04-01T03:26:02;25.40;;;12.93;;
76194;SDS011;64964;48.694;21.206;2023-04-01T03:28:28;22.00;;;12.30;;
76194;SDS011;64964;48.694;21.206;2023-04-01T03:30:53;23.67;;;12.33;;
76194;SDS011;64964;48.694;21.206;2023-04-01T03:33:18;22.37;;;12.13;;
76194;SDS011;64964;48.694;21.206;2023-04-01T03:35:44;24.23;;;13.20;;
76194;SDS011;64964;48.694;21.206;2023-04-01T03:38:09;21.30;;;11.27;;
76194;SDS011;64964;48.694;21.206;2023-04-01T03:40:35;25.07;;;12.10;;
76194;SDS011;64964;48.694;21.206;2023-04-01T03:43:03;24.20;;;12.05;;
76194;SDS011;64964;48.694;21.206;2023-04-01T03:45:31;23.23;;;11.93;;
76194;SDS011;64964;48.694;21.206;2023-04-01T03:47:57;24.87;;;12.83;;
76194;SDS011;64964;48.694;21.206;2023-04-01T03:50:22;29.10;;;13.57;;
76194;SDS011;64964;48.694;21.206;2023-04-01T03:52:47;26.23;;;13.30;;
76194;SDS011;64964;48.694;21.206;2023-04-01T03:55:13;29.25;;;14.13;;
76194;SDS011;64964;48.694;21.206;2023-04-01T03:57:38;26.47;;;13.57;;
76194;SDS011;64964;48.694;21.206;2023-04-01T04:00:04;30.97;;;13.47;;
76194;SDS011;64964;48.694;21.206;2023-04-01T04:02:29;30.25;;;14.05;;
76194;SDS011;64964;48.694;21.206;2023-04-01T04:04:55;26.63;;;13.87;;
76194;SDS011;64964;48.694;21.206;2023-04-01T04:07:20;35.53;;;14.00;;
76194;SDS011;64964;48.694;21.206;2023-04-01T04:09:45;31.37;;;14.43;;
76194;SDS011;64964;48.694;21.206;2023-04-01T04:12:12;25.55;;;13.63;;
76194;SDS011;64964;48.694;21.206;2023-04-01T04:14:37;24.30;;;12.50;;
76194;SDS011;64964;48.694;21.206;2023-04-01T04:17:03;28.50;;;13.63;;
76194;SDS011;64964;48.694;21.206;2023-04-01T04:19:31;25.87;;;13.50;;
76194;SDS011;64964;48.694;21.206;2023-04-01T04:21:58;27.50;;;13.35;;
76194;SDS011;64964;48.694;21.206;2023-04-01T04:24:26;22.90;;;12.20;;
76194;SDS011;64964;48.694;21.206;2023-04-01T04:26:52;20.75;;;12.45;;
76194;SDS011;64964;48.694;21.206;2023-04-01T04:29:18;21.45;;;11.43;;
76194;SDS011;64964;48.694;21.206;2023-04-01T04:31:43;25.47;;;11.80;;
76194;SDS011;64964;48.694;21.206;2023-04-01T04:34:08;21.40;;;11.80;;
76194;SDS011;64964;48.694;21.206;2023-04-01T04:36:34;21.67;;;11.67;;
76194;SDS011;64964;48.694;21.206;2023-04-01T04:38:59;22.45;;;11.48;;
76194;SDS011;64964;48.694;21.206;2023-04-01T04:41:27;20.37;;;11.87;;
76194;SDS011;64964;48.694;21.206;2023-04-01T04:43:53;23.50;;;13.50;;
76194;SDS011;64964;48.694;21.206;2023-04-01T04:46:20;22.37;;;12.77;;
76194;SDS011;64964;48.694;21.206;2023-04-01T04:48:46;23.95;;;13.55;;
76194;SDS011;64964;48.694;21.206;2023-04-01T04:51:12;22.25;;;13.00;;
76194;SDS011;64964;48.694;21.206;2023-04-01T04:53:40;26.02;;;13.52;;
76194;SDS011;64964;48.694;21.206;2023-04-01T04:56:06;27.20;;;14.23;;
76194;SDS011;64964;48.694;21.206;2023-04-01T04:58:31;29.03;;;13.90;;
76194;SDS011;64964;48.694;21.206;2023-04-01T05:00:57;28.23;;;13.68;;
76194;SDS011;64964;48.694;21.206;2023-04-01T05:03:22;35.87;;;14.00;;
76194;SDS011;64964;48.694;21.206;2023-04-01T05:05:48;31.60;;;13.90;;
76194;SDS011;64964;48.694;21.206;2023-04-01T05:08:15;33.97;;;13.77;;
76194;SDS011;64964;48.694;21.206;2023-04-01T05:10:41;34.37;;;14.47;;
76194;SDS011;64964;48.694;21.206;2023-04-01T05:13:06;35.53;;;14.67;;
76194;SDS011;64964;48.694;21.206;2023-04-01T05:15:31;34.35;;;14.20;;
76194;SDS011;64964;48.694;21.206;2023-04-01T05:17:57;26.60;;;12.73;;
76194;SDS011;64964;48.694;21.206;2023-04-01T05:20:22;33.53;;;13.73;;
76194;SDS011;64964;48.694;21.206;2023-04-01T05:22:48;29.93;;;11.93;;
76194;SDS011;64964;48.694;21.206;2023-04-01T05:25:13;32.23;;;13.20;;
76194;SDS011;64964;48.694;21.206;2023-04-01T05:27:38;29.27;;;11.88;;
76194;SDS011;64964;48.694;21.206;2023-04-01T05:30:04;28.83;;;11.77;;
76194;SDS011;64964;48.694;21.206;2023-04-01T05:32:30;29.90;;;11.60;;
76194;SDS011;64964;48.694;21.206;2023-04-01T05:34:56;29.73;;;11.20;;
76194;SDS011;64964;48.694;21.206;2023-04-01T05:37:21;28.13;;;10.87;;
76194;SDS011;64964;48.694;21.206;2023-04-01T05:39:47;26.03;;;10.80;;
76194;SDS011;64964;48.694;21.206;2023-04-01T05:42:13;25.63;;;11.07;;
76194;SDS011;64964;48.694;21.206;2023-04-01T05:44:38;28.83;;;11.40;;
76194;SDS011;64964;48.694;21.206;2023-04-01T05:47:04;30.30;;;11.73;;
76194;SDS011;64964;48.694;21.206;2023-04-01T05:49:29;35.42;;;11.75;;
76194;SDS011;64964;48.694;21.206;2023-04-01T05:51:55;36.17;;;12.20;;
76194;SDS011;64964;48.694;21.206;2023-04-01T05:54:21;33.05;;;11.63;;
76194;SDS011;64964;48.694;21.206;2023-04-01T05:56:46;30.13;;;11.63;;
76194;SDS011;64964;48.694;21.206;2023-04-01T05:59:12;38.57;;;12.53;;
76194;SDS011;64964;48.694;21.206;2023-04-01T06:01:37;31.23;;;12.93;;
76194;SDS011;64964;48.694;21.206;2023-04-01T06:04:03;35.73;;;12.37;;
76194;SDS011;64964;48.694;21.206;2023-04-01T06:06:29;28.05;;;11.00;;
76194;SDS011;64964;48.694;21.206;2023-04-01T06:09:05;29.60;;;12.20;;
76194;SDS011;64964;48.694;21.206;2023-04-01T06:11:41;28.30;;;11.63;;
76194;SDS011;64964;48.694;21.206;2023-04-01T06:28:19;27.17;;;12.07;;
76194;SDS011;64964;48.694;21.206;2023-04-01T06:30:51;28.67;;;12.52;;
76194;SDS011;64964;48.694;21.206;2023-04-01T06:38:52;25.47;;;11.10;;
76194;SDS011;64964;48.694;21.206;2023-04-01T06:54:40;29.30;;;12.27;;
76194;SDS011;64964;48.694;21.206;2023-04-01T06:59:43;27.55;;;12.32;;
76194;SDS011;64964;48.694;21.206;2023-04-01T07:04:39;27.50;;;12.63;;
76194;SDS011;64964;48.694;21.206;2023-04-01T07:07:15;25.05;;;11.48;;
76194;SDS011;64964;48.694;21.206;2023-04-01T07:09:50;24.48;;;11.60;;
76194;SDS011;64964;48.694;21.206;2023-04-01T07:15:09;29.00;;;12.20;;
76194;SDS011;64964;48.694;21.206;2023-04-01T07:17:41;27.85;;;12.35;;
76194;SDS011;64964;48.694;21.206;2023-04-01T07:22:56;27.38;;;12.02;;
76194;SDS011;64964;48.694;21.206;2023-04-01T07:25:28;28.13;;;12.70;;
76194;SDS011;64964;48.694;21.206;2023-04-01T07:27:58;30.75;;;13.20;;
76194;SDS011;64964;48.694;21.206;2023-04-01T07:36:59;28.17;;;13.05;;
76194;SDS011;64964;48.694;21.206;2023-04-01T07:39:50;28.23;;;12.60;;
76194;SDS011;64964;48.694;21.206;2023-04-01T07:45:01;31.80;;;13.93;;
76194;SDS011;64964;48.694;21.206;2023-04-01T07:50:29;31.58;;;13.60;;
76194;SDS011;64964;48.694;21.206;2023-04-01T07:55:43;44.03;;;17.35;;
76194;SDS011;64964;48.694;21.206;2023-04-01T08:06:28;43.83;;;18.00;;
76194;SDS011;64964;48.694;21.206;2023-04-01T08:11:55;41.95;;;18.15;;
76194;SDS011;64964;48.694;21.206;2023-04-01T08:22:40;37.47;;;15.95;;
76194;SDS011;64964;48.694;21.206;2023-04-01T08:25:19;30.83;;;14.13;;
76194;SDS011;64964;48.694;21.206;2023-04-01T08:27:57;32.00;;;14.35;;
76194;SDS011;64964;48.694;21.206;2023-04-01T08:30:38;30.23;;;14.10;;
76194;SDS011;64964;48.694;21.206;2023-04-01T08:33:11;35.93;;;16.47;;
76194;SDS011;64964;48.694;21.206;2023-04-01T08:35:48;35.38;;;15.75;;
76194;SDS011;64964;48.694;21.206;2023-04-01T08:38:21;30.42;;;14.63;;
76194;SDS011;64964;48.694;21.206;2023-04-01T08:46:32;30.03;;;13.57;;
76194;SDS011;64964;48.694;21.206;2023-04-01T08:56:58;28.63;;;13.32;;
76194;SDS011;64964;48.694;21.206;2023-04-01T09:21:53;35.50;;;17.17;;
76194;SDS011;64964;48.694;21.206;2023-04-01T09:25:01;33.65;;;15.73;;
76194;SDS011;64964;48.694;21.206;2023-04-01T09:27:56;33.53;;;16.97;;
76194;SDS011;64964;48.694;21.206;2023-04-01T09:30:34;34.38;;;17.05;;
76194;SDS011;64964;48.694;21.206;2023-04-01T09:33:09;34.83;;;16.42;;
76194;SDS011;64964;48.694;21.206;2023-04-01T09:51:58;33.03;;;16.38;;
76194;SDS011;64964;48.694;21.206;2023-04-01T09:57:35;27.67;;;15.60;;
76194;SDS011;64964;48.694;21.206;2023-04-01T10:05:58;25.83;;;15.48;;
76194;SDS011;64964;48.694;21.206;2023-04-01T10:22:44;17.33;;;11.00;;
76194;SDS011;64964;48.694;21.206;2023-04-01T10:31:14;19.98;;;11.18;;
76194;SDS011;64964;48.694;21.206;2023-04-01T11:09:39;6.83;;;4.20;;
76194;SDS011;64964;48.694;21.206;2023-04-01T11:12:15;5.63;;;3.83;;
76194;SDS011;64964;48.694;21.206;2023-04-01T11:20:31;7.43;;;3.80;;
76194;SDS011;64964;48.694;21.206;2023-04-01T11:23:11;4.10;;;2.85;;
76194;SDS011;64964;48.694;21.206;2023-04-01T11:33:53;4.55;;;3.25;;
76194;SDS011;64964;48.694;21.206;2023-04-01T11:39:24;5.20;;;3.53;;
76194;SDS011;64964;48.694;21.206;2023-04-01T11:44:34;7.50;;;4.37;;
76194;SDS011;64964;48.694;21.206;2023-04-01T11:53:00;7.45;;;4.72;;
76194;SDS011;64964;48.694;21.206;2023-04-01T12:17:56;5.88;;;3.58;;
76194;SDS011;64964;48.694;21.206;2023-04-01T12:31:53;6.07;;;3.08;;
76194;SDS011;64964;48.694;21.206;2023-04-01T12:45:28;5.20;;;3.10;;
76194;SDS011;64964;48.694;21.206;2023-04-01T12:55:59;6.85;;;3.58;;
76194;SDS011;64964;48.694;21.206;2023-04-01T13:01:29;7.13;;;3.30;;
76194;SDS011;64964;48.694;21.206;2023-04-01T13:31:34;7.18;;;3.45;;
76194;SDS011;64964;48.694;21.206;2023-04-01T13:42:54;4.18;;;2.88;;
76194;SDS011;64964;48.694;21.206;2023-04-01T13:45:26;4.63;;;3.00;;
76194;SDS011;64964;48.694;21.206;2023-04-01T13:51:20;5.57;;;3.30;;
76194;SDS011;64964;48.694;21.206;2023-04-01T13:57:07;7.80;;;3.70;;
76194;SDS011;64964;48.694;21.206;2023-04-01T14:08:26;6.47;;;3.40;;
76194;SDS011;64964;48.694;21.206;2023-04-01T14:27:37;5.97;;;3.28;;
76194;SDS011;64964;48.694;21.206;2023-04-01T14:32:56;6.03;;;3.08;;
76194;SDS011;64964;48.694;21.206;2023-04-01T14:38:31;6.55;;;3.58;;
76194;SDS011;64964;48.694;21.206;2023-04-01T14:49:15;5.03;;;3.27;;
76194;SDS011;64964;48.694;21.206;2023-04-01T14:51:57;5.30;;;3.15;;
76194;SDS011;64964;48.694;21.206;2023-04-01T14:54:55;5.43;;;3.30;;
76194;SDS011;64964;48.694;21.206;2023-04-01T14:57:27;6.85;;;3.75;;
76194;SDS011;64964;48.694;21.206;2023-04-01T14:59:59;7.55;;;3.47;;
76194;SDS011;64964;48.694;21.206;2023-04-01T15:05:32;6.28;;;3.25;;
76194;SDS011;64964;48.694;21.206;2023-04-01T15:21:18;9.80;;;5.40;;
76194;SDS011;64964;48.694;21.206;2023-04-01T15:26:28;9.18;;;4.97;;
76194;SDS011;64964;48.694;21.206;2023-04-01T15:32:02;7.33;;;3.07;;
76194;SDS011;64964;48.694;21.206;2023-04-01T15:34:30;6.10;;;3.53;;
76194;SDS011;64964;48.694;21.206;2023-04-01T15:42:38;5.60;;;3.10;;
76194;SDS011;64964;48.694;21.206;2023-04-01T15:48:12;12.38;;;6.55;;
76194;SDS011;64964;48.694;21.206;2023-04-01T15:53:54;7.32;;;4.18;;
76194;SDS011;64964;48.694;21.206;2023-04-01T15:56:41;80.13;;;38.72;;
76194;SDS011;64964;48.694;21.206;2023-04-01T16:02:16;4.57;;;3.38;;
76194;SDS011;64964;48.694;21.206;2023-04-01T16:04:52;6.95;;;4.38;;
76194;SDS011;64964;48.694;21.206;2023-04-01T16:07:30;5.95;;;3.15;;
76194;SDS011;64964;48.694;21.206;2023-04-01T16:16:13;5.95;;;2.78;;
76194;SDS011;64964;48.694;21.206;2023-04-01T16:29:52;5.30;;;3.45;;
76194;SDS011;64964;48.694;21.206;2023-04-01T16:32:44;5.55;;;3.60;;
76194;SDS011;64964;48.694;21.206;2023-04-01T16:38:33;7.85;;;4.40;;
76194;SDS011;64964;48.694;21.206;2023-04-01T16:41:15;14.00;;;7.73;;
76194;SDS011;64964;48.694;21.206;2023-04-01T16:43:48;12.45;;;7.65;;
76194;SDS011;64964;48.694;21.206;2023-04-01T16:48:58;4.47;;;3.10;;
76194;SDS011;64964;48.694;21.206;2023-04-01T16:51:44;4.60;;;2.50;;
76194;SDS011;64964;48.694;21.206;2023-04-01T16:59:44;8.25;;;6.05;;
76194;SDS011;64964;48.694;21.206;2023-04-01T17:02:18;4.82;;;3.40;;
76194;SDS011;64964;48.694;21.206;2023-04-01T17:07:46;5.70;;;3.60;;
76194;SDS011;64964;48.694;21.206;2023-04-01T17:21:22;6.33;;;3.40;;
76194;SDS011;64964;48.694;21.206;2023-04-01T17:37:29;9.07;;;4.57;;
76194;SDS011;64964;48.694;21.206;2023-04-01T17:40:19;9.75;;;4.85;;
76194;SDS011;64964;48.694;21.206;2023-04-01T17:43:02;8.35;;;4.82;;
76194;SDS011;64964;48.694;21.206;2023-04-01T17:45:42;8.73;;;4.88;;
76194;SDS011;64964;48.694;21.206;2023-04-01T17:48:18;9.63;;;4.73;;
76194;SDS011;64964;48.694;21.206;2023-04-01T17:54:18;7.40;;;3.92;;
76194;SDS011;64964;48.694;21.206;2023-04-01T17:57:01;10.43;;;4.93;;
76194;SDS011;64964;48.694;21.206;2023-04-01T17:59:44;10.45;;;4.40;;
76194;SDS011;64964;48.694;21.206;2023-04-01T18:18:48;3.28;;;1.95;;
76194;SDS011;64964;48.694;21.206;2023-04-01T18:21:21;2.97;;;1.90;;
76194;SDS011;64964;48.694;21.206;2023-04-01T18:23:56;2.53;;;1.67;;
76194;SDS011;64964;48.694;21.206;2023-04-01T18:31:51;3.13;;;1.73;;
76194;SDS011;64964;48.694;21.206;2023-04-01T18:37:27;2.08;;;1.55;;
76194;SDS011;64964;48.694;21.206;2023-04-01T18:40:16;2.40;;;1.60;;
76194;SDS011;64964;48.694;21.206;2023-04-01T18:43:08;2.07;;;1.40;;
76194;SDS011;64964;48.694;21.206;2023-04-01T18:45:46;1.20;;;1.10;;
76194;SDS011;64964;48.694;21.206;2023-04-01T18:51:39;1.35;;;0.93;;
76194;SDS011;64964;48.694;21.206;2023-04-01T18:56:41;1.30;;;0.90;;
76194;SDS011;64964;48.694;21.206;2023-04-01T18:59:20;1.58;;;0.95;;
76194;SDS011;64964;48.694;21.206;2023-04-01T19:07:42;3.53;;;1.80;;
76194;SDS011;64964;48.694;21.206;2023-04-01T19:12:49;1.20;;;1.00;;
76194;SDS011;64964;48.694;21.206;2023-04-01T19:15:24;1.20;;;1.10;;
76194;SDS011;64964;48.694;21.206;2023-04-01T19:18:16;1.50;;;1.13;;
76194;SDS011;64964;48.694;21.206;2023-04-01T19:27:26;1.63;;;1.08;;
76194;SDS011;64964;48.694;21.206;2023-04-01T19:35:49;3.28;;;1.52;;
76194;SDS011;64964;48.694;21.206;2023-04-01T19:43:54;2.25;;;1.50;;
76194;SDS011;64964;48.694;21.206;2023-04-01T19:46:39;4.75;;;2.60;;
76194;SDS011;64964;48.694;21.206;2023-04-01T19:51:56;2.10;;;1.30;;
76194;SDS011;64964;48.694;21.206;2023-04-01T19:57:28;5.68;;;2.40;;
76194;SDS011;64964;48.694;21.206;2023-04-01T20:00:18;5.60;;;2.55;;
76194;SDS011;64964;48.694;21.206;2023-04-01T20:02:59;4.13;;;1.70;;
76194;SDS011;64964;48.694;21.206;2023-04-01T20:05:45;3.60;;;1.97;;
76194;SDS011;64964;48.694;21.206;2023-04-01T20:08:26;4.68;;;2.40;;
76194;SDS011;64964;48.694;21.206;2023-04-01T20:13:52;4.15;;;1.80;;
76194;SDS011;64964;48.694;21.206;2023-04-01T20:16:37;5.90;;;1.90;;
76194;SDS011;64964;48.694;21.206;2023-04-01T20:19:08;5.87;;;2.20;;
76194;SDS011;64964;48.694;21.206;2023-04-01T20:21:41;5.50;;;2.67;;
76194;SDS011;64964;48.694;21.206;2023-04-01T20:24:22;5.30;;;3.15;;
76194;SDS011;64964;48.694;21.206;2023-04-01T20:27:05;4.38;;;2.30;;
76194;SDS011;64964;48.694;21.206;2023-04-01T20:29:47;5.90;;;2.47;;
76194;SDS011;64964;48.694;21.206;2023-04-01T20:32:43;4.50;;;2.20;;
76194;SDS011;64964;48.694;21.206;2023-04-01T20:41:16;3.78;;;2.15;;
76194;SDS011;64964;48.694;21.206;2023-04-01T20:44:04;3.58;;;1.98;;
76194;SDS011;64964;48.694;21.206;2023-04-01T20:46:54;3.80;;;2.13;;
76194;SDS011;64964;48.694;21.206;2023-04-01T20:49:41;4.45;;;2.40;;
76194;SDS011;64964;48.694;21.206;2023-04-01T20:52:39;5.05;;;2.70;;
76194;SDS011;64964;48.694;21.206;2023-04-01T21:00:30;4.90;;;1.90;;
76194;SDS011;64964;48.694;21.206;2023-04-01T21:03:16;4.38;;;1.77;;
76194;SDS011;64964;48.694;21.206;2023-04-01T21:08:25;3.13;;;1.73;;
76194;SDS011;64964;48.694;21.206;2023-04-01T21:30:04;3.78;;;1.70;;
76194;SDS011;64964;48.694;21.206;2023-04-01T21:38:00;1.60;;;1.38;;
76194;SDS011;64964;48.694;21.206;2023-04-01T21:40:38;1.77;;;1.47;;
76194;SDS011;64964;48.694;21.206;2023-04-01T21:43:09;2.38;;;1.40;;
76194;SDS011;64964;48.694;21.206;2023-04-01T21:48:53;2.20;;;1.50;;
76194;SDS011;64964;48.694;21.206;2023-04-01T22:05:28;3.05;;;1.60;;
76194;SDS011;64964;48.694;21.206;2023-04-01T22:10:37;2.00;;;1.50;;
76194;SDS011;64964;48.694;21.206;2023-04-01T22:26:32;3.40;;;1.90;;
76194;SDS011;64964;48.694;21.206;2023-04-01T22:29:17;2.90;;;1.80;;
76194;SDS011;64964;48.694;21.206;2023-04-01T22:34:32;3.40;;;1.70;;
76194;SDS011;64964;48.694;21.206;2023-04-01T22:37:13;3.42;;;1.90;;
76194;SDS011;64964;48.694;21.206;2023-04-01T22:43:08;3.58;;;2.00;;
76194;SDS011;64964;48.694;21.206;2023-04-01T22:48:44;3.47;;;1.80;;
76194;SDS011;64964;48.694;21.206;2023-04-01T22:53:59;2.38;;;1.88;;
76194;SDS011;64964;48.694;21.206;2023-04-01T22:56:28;4.13;;;1.65;;
76194;SDS011;64964;48.694;21.206;2023-04-01T22:59:04;3.15;;;1.67;;
76194;SDS011;64964;48.694;21.206;2023-04-01T23:01:53;4.63;;;2.00;;
76194;SDS011;64964;48.694;21.206;2023-04-01T23:04:24;3.45;;;1.73;;
76194;SDS011;64964;48.694;21.206;2023-04-01T23:06:57;2.75;;;2.00;;
76194;SDS011;64964;48.694;21.206;2023-04-01T23:09:30;3.95;;;1.88;;
76194;SDS011;64964;48.694;21.206;2023-04-01T23:14:39;2.80;;;1.90;;
76194;SDS011;64964;48.694;21.206;2023-04-01T23:28:53;4.67;;;2.10;;
76194;SDS011;64964;48.694;21.206;2023-04-01T23:31:27;3.92;;;2.03;;
76194;SDS011;64964;48.694;21.206;2023-04-01T23:34:24;6.15;;;2.40;;
76194;SDS011;64964;48.694;21.206;2023-04-01T23:36:53;3.50;;;2.00;;
76194;SDS011;64964;48.694;21.206;2023-04-01T23:42:21;4.13;;;2.00;;
76194;SDS011;64964;48.694;21.206;2023-04-01T23:44:51;4.50;;;2.20;;
76194;SDS011;64964;48.694;21.206;2023-04-01T23:47:29;3.47;;;2.10;;
76194;SDS011;64964;48.694;21.206;2023-04-01T23:49:58;3.55;;;2.00;;
76194;SDS011;64964;48.694;21.206;2023-04-01T23:54:55;3.40;;;2.10;;
76194;SDS011;64964;48.694;21.206;2023-04-01T23:57:31;3.42;;;1.95;;
